Log in Register

Login to your account

Username *
Password *
Remember Me

Create an account

Fields marked with an asterisk (*) are required.
Name *
Username *
Password *
Verify password *
Email *
Verify email *

METAR/TAF de Chambéry

[source: ADDS]
METAR
LFLB 211130Z AUTO 35006KT 320V020 9999 OVC019 07/03 Q1009 NOSIG =
TAF LFLB 211100Z 2112/2212 VRB03KT 8000 OVC020 TEMPO 2112/2118 NSC PROB30 TEMPO 2120/2203 -RA SCT020 BKN060TCU
TAF
TAF LFLB 211100Z 2112/2212 VRB03KT 8000 OVC020 TEMPO 2112/2118 NSC PROB30 TEMPO 2120/2203 -RA SCT020 BKN060TCU =
SR / SS: 06:43 / 16:00 UTC (Lever/Coucher du soleil le 2019-11-21)

 

Webcam de l'Aéroclub - Parking Lima et SW (réactualisation : 5min)

Cliquer ici pour une animation sur les 3 dernières heures / Cliquer sur l'image pour l'agrandir dans une nouvelle fenêtre

 

Webcam de l'Aéroclub - Manche à air et WA (réactualisation : 5min)

Cliquer ici pour une animation sur les 3 dernières heures / Cliquer sur l'image pour l'agrandir dans une nouvelle fenêtre

 

JSN Boot template designed by JoomlaShine.com